sensor_id;sensor_type;location;lat;lon;timestamp;P1;durP1;ratioP1;P2;durP2;ratioP2
4317;SDS011;2172;53.576;9.934;2023-05-13T00:00:20;17.47;;;11.20;;
4317;SDS011;2172;53.576;9.934;2023-05-13T00:02:48;12.03;;;10.37;;
4317;SDS011;2172;53.576;9.934;2023-05-13T00:05:15;12.63;;;11.17;;
4317;SDS011;2172;53.576;9.934;2023-05-13T00:07:43;12.07;;;10.00;;
4317;SDS011;2172;53.576;9.934;2023-05-13T00:10:12;11.33;;;10.30;;
4317;SDS011;2172;53.576;9.934;2023-05-13T00:12:40;13.13;;;10.43;;
4317;SDS011;2172;53.576;9.934;2023-05-13T00:15:08;12.00;;;10.60;;
4317;SDS011;2172;53.576;9.934;2023-05-13T00:17:36;13.20;;;11.27;;
4317;SDS011;2172;53.576;9.934;2023-05-13T00:20:04;11.83;;;10.57;;
4317;SDS011;2172;53.576;9.934;2023-05-13T00:22:34;15.40;;;11.00;;
4317;SDS011;2172;53.576;9.934;2023-05-13T00:25:02;11.90;;;10.60;;
4317;SDS011;2172;53.576;9.934;2023-05-13T00:27:31;12.30;;;11.00;;
4317;SDS011;2172;53.576;9.934;2023-05-13T00:29:59;16.60;;;11.63;;
4317;SDS011;2172;53.576;9.934;2023-05-13T00:32:27;11.57;;;10.43;;
4317;SDS011;2172;53.576;9.934;2023-05-13T00:34:55;11.23;;;10.20;;
4317;SDS011;2172;53.576;9.934;2023-05-13T00:37:22;12.80;;;11.37;;
4317;SDS011;2172;53.576;9.934;2023-05-13T00:39:50;12.63;;;11.30;;
4317;SDS011;2172;53.576;9.934;2023-05-13T00:42:18;11.90;;;10.70;;
4317;SDS011;2172;53.576;9.934;2023-05-13T00:44:46;13.93;;;11.00;;
4317;SDS011;2172;53.576;9.934;2023-05-13T00:47:14;12.10;;;10.80;;
4317;SDS011;2172;53.576;9.934;2023-05-13T00:49:43;13.97;;;11.10;;
4317;SDS011;2172;53.576;9.934;2023-05-13T00:52:10;12.70;;;10.97;;
4317;SDS011;2172;53.576;9.934;2023-05-13T00:54:38;11.70;;;10.47;;
4317;SDS011;2172;53.576;9.934;2023-05-13T00:57:06;15.00;;;10.73;;
4317;SDS011;2172;53.576;9.934;2023-05-13T00:59:34;13.73;;;11.00;;
4317;SDS011;2172;53.576;9.934;2023-05-13T01:02:05;14.10;;;10.90;;
4317;SDS011;2172;53.576;9.934;2023-05-13T01:04:38;14.20;;;11.37;;
4317;SDS011;2172;53.576;9.934;2023-05-13T01:07:11;12.80;;;10.53;;
4317;SDS011;2172;53.576;9.934;2023-05-13T01:09:46;12.13;;;10.27;;
4317;SDS011;2172;53.576;9.934;2023-05-13T01:12:24;12.80;;;11.50;;
4317;SDS011;2172;53.576;9.934;2023-05-13T01:14:57;15.60;;;11.73;;
4317;SDS011;2172;53.576;9.934;2023-05-13T01:17:34;13.40;;;12.00;;
4317;SDS011;2172;53.576;9.934;2023-05-13T01:20:26;12.90;;;11.60;;
4317;SDS011;2172;53.576;9.934;2023-05-13T01:22:56;12.70;;;11.43;;
4317;SDS011;2172;53.576;9.934;2023-05-13T01:25:23;13.73;;;12.03;;
4317;SDS011;2172;53.576;9.934;2023-05-13T01:27:51;16.53;;;11.60;;
4317;SDS011;2172;53.576;9.934;2023-05-13T01:30:19;13.63;;;12.20;;
4317;SDS011;2172;53.576;9.934;2023-05-13T01:32:47;12.53;;;11.03;;
4317;SDS011;2172;53.576;9.934;2023-05-13T01:35:15;12.90;;;11.70;;
4317;SDS011;2172;53.576;9.934;2023-05-13T01:37:44;14.03;;;12.17;;
4317;SDS011;2172;53.576;9.934;2023-05-13T01:40:14;15.03;;;11.77;;
4317;SDS011;2172;53.576;9.934;2023-05-13T01:42:42;16.27;;;13.10;;
4317;SDS011;2172;53.576;9.934;2023-05-13T01:45:10;15.80;;;11.40;;
4317;SDS011;2172;53.576;9.934;2023-05-13T01:47:38;14.77;;;12.93;;
4317;SDS011;2172;53.576;9.934;2023-05-13T01:50:06;14.77;;;12.57;;
4317;SDS011;2172;53.576;9.934;2023-05-13T01:52:34;14.23;;;12.73;;
4317;SDS011;2172;53.576;9.934;2023-05-13T01:55:02;13.20;;;11.90;;
4317;SDS011;2172;53.576;9.934;2023-05-13T01:57:33;14.30;;;12.80;;
4317;SDS011;2172;53.576;9.934;2023-05-13T02:00:01;14.60;;;12.97;;
4317;SDS011;2172;53.576;9.934;2023-05-13T02:02:39;14.20;;;12.70;;
4317;SDS011;2172;53.576;9.934;2023-05-13T02:05:07;17.83;;;14.37;;
4317;SDS011;2172;53.576;9.934;2023-05-13T02:07:36;14.20;;;12.70;;
4317;SDS011;2172;53.576;9.934;2023-05-13T02:10:03;14.80;;;13.40;;
4317;SDS011;2172;53.576;9.934;2023-05-13T02:12:33;13.97;;;12.67;;
4317;SDS011;2172;53.576;9.934;2023-05-13T02:15:02;14.87;;;13.47;;
4317;SDS011;2172;53.576;9.934;2023-05-13T02:17:30;16.77;;;13.07;;
4317;SDS011;2172;53.576;9.934;2023-05-13T02:19:58;20.73;;;14.17;;
4317;SDS011;2172;53.576;9.934;2023-05-13T02:22:25;15.40;;;13.40;;
4317;SDS011;2172;53.576;9.934;2023-05-13T02:24:53;16.43;;;13.90;;
4317;SDS011;2172;53.576;9.934;2023-05-13T02:27:20;15.97;;;14.47;;
4317;SDS011;2172;53.576;9.934;2023-05-13T02:29:49;16.80;;;12.80;;
4317;SDS011;2172;53.576;9.934;2023-05-13T02:32:17;14.93;;;13.37;;
4317;SDS011;2172;53.576;9.934;2023-05-13T02:34:44;16.23;;;14.63;;
4317;SDS011;2172;53.576;9.934;2023-05-13T02:37:12;15.33;;;13.90;;
4317;SDS011;2172;53.576;9.934;2023-05-13T02:39:48;15.47;;;13.87;;
4317;SDS011;2172;53.576;9.934;2023-05-13T02:42:16;15.20;;;13.60;;
4317;SDS011;2172;53.576;9.934;2023-05-13T02:44:43;19.10;;;14.13;;
4317;SDS011;2172;53.576;9.934;2023-05-13T02:47:14;16.80;;;14.50;;
4317;SDS011;2172;53.576;9.934;2023-05-13T02:49:42;18.37;;;13.80;;
4317;SDS011;2172;53.576;9.934;2023-05-13T02:52:09;16.27;;;13.77;;
4317;SDS011;2172;53.576;9.934;2023-05-13T02:54:37;15.97;;;14.37;;
4317;SDS011;2172;53.576;9.934;2023-05-13T02:57:04;16.80;;;14.30;;
4317;SDS011;2172;53.576;9.934;2023-05-13T02:59:32;17.40;;;15.20;;
4317;SDS011;2172;53.576;9.934;2023-05-13T03:02:00;17.23;;;14.63;;
4317;SDS011;2172;53.576;9.934;2023-05-13T03:04:29;18.60;;;14.40;;
4317;SDS011;2172;53.576;9.934;2023-05-13T03:06:56;16.63;;;15.03;;
4317;SDS011;2172;53.576;9.934;2023-05-13T03:09:24;17.40;;;15.50;;
4317;SDS011;2172;53.576;9.934;2023-05-13T03:11:51;16.73;;;14.33;;
4317;SDS011;2172;53.576;9.934;2023-05-13T03:14:19;17.83;;;16.03;;
4317;SDS011;2172;53.576;9.934;2023-05-13T03:16:47;18.97;;;14.60;;
4317;SDS011;2172;53.576;9.934;2023-05-13T03:19:14;23.37;;;15.27;;
4317;SDS011;2172;53.576;9.934;2023-05-13T03:21:43;16.33;;;14.63;;
4317;SDS011;2172;53.576;9.934;2023-05-13T03:24:13;17.77;;;15.97;;
4317;SDS011;2172;53.576;9.934;2023-05-13T03:26:41;17.27;;;15.53;;
4317;SDS011;2172;53.576;9.934;2023-05-13T03:29:09;18.10;;;15.70;;
4317;SDS011;2172;53.576;9.934;2023-05-13T03:31:36;21.43;;;14.90;;
4317;SDS011;2172;53.576;9.934;2023-05-13T03:34:04;17.73;;;15.90;;
4317;SDS011;2172;53.576;9.934;2023-05-13T03:36:32;20.37;;;15.43;;
4317;SDS011;2172;53.576;9.934;2023-05-13T03:39:01;17.67;;;15.27;;
4317;SDS011;2172;53.576;9.934;2023-05-13T03:41:29;17.50;;;15.70;;
4317;SDS011;2172;53.576;9.934;2023-05-13T03:43:59;17.27;;;15.57;;
4317;SDS011;2172;53.576;9.934;2023-05-13T03:46:26;18.20;;;16.40;;
4317;SDS011;2172;53.576;9.934;2023-05-13T03:48:54;17.00;;;15.10;;
4317;SDS011;2172;53.576;9.934;2023-05-13T03:51:24;19.57;;;16.53;;
4317;SDS011;2172;53.576;9.934;2023-05-13T03:53:55;18.07;;;16.30;;
4317;SDS011;2172;53.576;9.934;2023-05-13T03:56:24;21.90;;;17.13;;
4317;SDS011;2172;53.576;9.934;2023-05-13T03:58:52;19.43;;;17.40;;
4317;SDS011;2172;53.576;9.934;2023-05-13T04:01:19;17.53;;;15.50;;
4317;SDS011;2172;53.576;9.934;2023-05-13T04:03:49;19.07;;;16.67;;
4317;SDS011;2172;53.576;9.934;2023-05-13T04:06:17;19.23;;;15.07;;
4317;SDS011;2172;53.576;9.934;2023-05-13T04:08:45;19.70;;;17.67;;
4317;SDS011;2172;53.576;9.934;2023-05-13T04:11:14;18.87;;;16.97;;
4317;SDS011;2172;53.576;9.934;2023-05-13T04:13:43;21.53;;;19.37;;
4317;SDS011;2172;53.576;9.934;2023-05-13T04:16:11;19.93;;;17.83;;
4317;SDS011;2172;53.576;9.934;2023-05-13T04:18:40;20.87;;;18.63;;
4317;SDS011;2172;53.576;9.934;2023-05-13T04:21:07;19.83;;;17.60;;
4317;SDS011;2172;53.576;9.934;2023-05-13T04:23:35;19.10;;;16.40;;
4317;SDS011;2172;53.576;9.934;2023-05-13T04:26:03;20.00;;;17.90;;
4317;SDS011;2172;53.576;9.934;2023-05-13T04:28:30;25.63;;;18.00;;
4317;SDS011;2172;53.576;9.934;2023-05-13T04:31:00;19.03;;;17.03;;
4317;SDS011;2172;53.576;9.934;2023-05-13T04:33:30;20.13;;;18.13;;
4317;SDS011;2172;53.576;9.934;2023-05-13T04:35:57;19.53;;;16.97;;
4317;SDS011;2172;53.576;9.934;2023-05-13T04:38:25;21.00;;;18.90;;
4317;SDS011;2172;53.576;9.934;2023-05-13T04:40:53;19.93;;;17.80;;
4317;SDS011;2172;53.576;9.934;2023-05-13T04:43:29;20.30;;;17.63;;
4317;SDS011;2172;53.576;9.934;2023-05-13T04:46:00;21.00;;;18.70;;
4317;SDS011;2172;53.576;9.934;2023-05-13T04:48:28;21.87;;;18.60;;
4317;SDS011;2172;53.576;9.934;2023-05-13T04:50:56;19.57;;;17.20;;
4317;SDS011;2172;53.576;9.934;2023-05-13T04:53:25;20.63;;;17.80;;
4317;SDS011;2172;53.576;9.934;2023-05-13T04:55:55;20.13;;;16.80;;
4317;SDS011;2172;53.576;9.934;2023-05-13T04:58:26;18.70;;;16.90;;
4317;SDS011;2172;53.576;9.934;2023-05-13T05:00:53;23.57;;;17.63;;
4317;SDS011;2172;53.576;9.934;2023-05-13T05:03:23;17.93;;;16.00;;
4317;SDS011;2172;53.576;9.934;2023-05-13T05:05:51;17.60;;;16.10;;
4317;SDS011;2172;53.576;9.934;2023-05-13T05:08:20;20.40;;;16.77;;
4317;SDS011;2172;53.576;9.934;2023-05-13T05:10:49;22.50;;;18.73;;
4317;SDS011;2172;53.576;9.934;2023-05-13T05:13:18;19.00;;;17.10;;
4317;SDS011;2172;53.576;9.934;2023-05-13T05:15:45;19.90;;;17.83;;
4317;SDS011;2172;53.576;9.934;2023-05-13T05:18:13;20.70;;;16.40;;
4317;SDS011;2172;53.576;9.934;2023-05-13T05:20:46;18.37;;;16.37;;
4317;SDS011;2172;53.576;9.934;2023-05-13T05:23:15;17.93;;;16.23;;
4317;SDS011;2172;53.576;9.934;2023-05-13T05:25:44;18.00;;;16.17;;
4317;SDS011;2172;53.576;9.934;2023-05-13T05:28:11;20.87;;;15.90;;
4317;SDS011;2172;53.576;9.934;2023-05-13T05:30:41;20.33;;;17.43;;
4317;SDS011;2172;53.576;9.934;2023-05-13T05:33:14;18.50;;;16.60;;
4317;SDS011;2172;53.576;9.934;2023-05-13T05:35:42;17.70;;;15.93;;
4317;SDS011;2172;53.576;9.934;2023-05-13T05:38:14;17.67;;;15.77;;
4317;SDS011;2172;53.576;9.934;2023-05-13T05:40:43;20.00;;;16.80;;
4317;SDS011;2172;53.576;9.934;2023-05-13T05:43:12;22.80;;;14.70;;
4317;SDS011;2172;53.576;9.934;2023-05-13T05:45:40;18.30;;;15.47;;
4317;SDS011;2172;53.576;9.934;2023-05-13T05:48:14;18.50;;;16.00;;
4317;SDS011;2172;53.576;9.934;2023-05-13T05:50:42;16.03;;;14.50;;
4317;SDS011;2172;53.576;9.934;2023-05-13T05:53:14;16.13;;;14.50;;
4317;SDS011;2172;53.576;9.934;2023-05-13T05:55:43;16.47;;;14.67;;
4317;SDS011;2172;53.576;9.934;2023-05-13T05:58:14;16.57;;;14.97;;
4317;SDS011;2172;53.576;9.934;2023-05-13T06:00:42;16.20;;;14.23;;
4317;SDS011;2172;53.576;9.934;2023-05-13T06:03:10;17.13;;;14.27;;
4317;SDS011;2172;53.576;9.934;2023-05-13T06:05:37;17.70;;;14.07;;
4317;SDS011;2172;53.576;9.934;2023-05-13T06:08:05;15.43;;;13.93;;
4317;SDS011;2172;53.576;9.934;2023-05-13T06:10:34;14.23;;;12.70;;
4317;SDS011;2172;53.576;9.934;2023-05-13T06:13:02;13.53;;;12.33;;
4317;SDS011;2172;53.576;9.934;2023-05-13T06:15:30;19.23;;;12.80;;
4317;SDS011;2172;53.576;9.934;2023-05-13T06:17:57;13.93;;;12.63;;
4317;SDS011;2172;53.576;9.934;2023-05-13T06:20:25;13.47;;;12.03;;
4317;SDS011;2172;53.576;9.934;2023-05-13T06:22:53;14.00;;;12.00;;
4317;SDS011;2172;53.576;9.934;2023-05-13T06:25:20;17.33;;;13.07;;
4317;SDS011;2172;53.576;9.934;2023-05-13T06:27:49;11.30;;;10.30;;
4317;SDS011;2172;53.576;9.934;2023-05-13T06:30:19;14.27;;;11.47;;
4317;SDS011;2172;53.576;9.934;2023-05-13T06:32:47;16.87;;;13.03;;
4317;SDS011;2172;53.576;9.934;2023-05-13T06:35:15;14.00;;;11.30;;
4317;SDS011;2172;53.576;9.934;2023-05-13T06:37:43;13.40;;;11.63;;
4317;SDS011;2172;53.576;9.934;2023-05-13T06:40:10;16.17;;;10.83;;
4317;SDS011;2172;53.576;9.934;2023-05-13T06:42:41;13.90;;;10.10;;
4317;SDS011;2172;53.576;9.934;2023-05-13T06:45:19;10.43;;;9.53;;
4317;SDS011;2172;53.576;9.934;2023-05-13T06:47:48;11.43;;;10.23;;
4317;SDS011;2172;53.576;9.934;2023-05-13T06:50:16;11.20;;;10.03;;
4317;SDS011;2172;53.576;9.934;2023-05-13T06:52:43;9.87;;;8.40;;
4317;SDS011;2172;53.576;9.934;2023-05-13T06:55:11;9.33;;;8.43;;
4317;SDS011;2172;53.576;9.934;2023-05-13T06:57:59;11.50;;;9.03;;
4317;SDS011;2172;53.576;9.934;2023-05-13T07:00:28;18.90;;;10.77;;
4317;SDS011;2172;53.576;9.934;2023-05-13T07:02:55;12.23;;;9.63;;
4317;SDS011;2172;53.576;9.934;2023-05-13T07:05:27;10.93;;;7.83;;
4317;SDS011;2172;53.576;9.934;2023-05-13T07:07:55;9.30;;;8.27;;
4317;SDS011;2172;53.576;9.934;2023-05-13T07:10:23;12.93;;;8.53;;
4317;SDS011;2172;53.576;9.934;2023-05-13T07:12:50;11.13;;;8.03;;
4317;SDS011;2172;53.576;9.934;2023-05-13T07:15:18;8.73;;;7.90;;
4317;SDS011;2172;53.576;9.934;2023-05-13T07:17:47;12.20;;;8.50;;
4317;SDS011;2172;53.576;9.934;2023-05-13T07:20:14;13.43;;;8.53;;
4317;SDS011;2172;53.576;9.934;2023-05-13T07:22:46;13.23;;;7.87;;
4317;SDS011;2172;53.576;9.934;2023-05-13T07:25:13;9.50;;;8.40;;
4317;SDS011;2172;53.576;9.934;2023-05-13T07:27:41;14.10;;;8.37;;
4317;SDS011;2172;53.576;9.934;2023-05-13T07:30:09;11.83;;;8.33;;
4317;SDS011;2172;53.576;9.934;2023-05-13T07:32:38;12.63;;;8.40;;
4317;SDS011;2172;53.576;9.934;2023-05-13T07:35:07;16.03;;;8.10;;
4317;SDS011;2172;53.576;9.934;2023-05-13T07:37:35;24.63;;;10.30;;
4317;SDS011;2172;53.576;9.934;2023-05-13T07:40:03;8.73;;;7.80;;
4317;SDS011;2172;53.576;9.934;2023-05-13T07:42:32;9.10;;;7.40;;
4317;SDS011;2172;53.576;9.934;2023-05-13T07:44:59;9.40;;;8.00;;
4317;SDS011;2172;53.576;9.934;2023-05-13T07:47:27;10.50;;;7.73;;
4317;SDS011;2172;53.576;9.934;2023-05-13T07:49:56;10.10;;;8.07;;
4317;SDS011;2172;53.576;9.934;2023-05-13T07:52:25;8.93;;;7.53;;
4317;SDS011;2172;53.576;9.934;2023-05-13T07:54:52;7.83;;;6.83;;
4317;SDS011;2172;53.576;9.934;2023-05-13T07:57:20;8.50;;;7.10;;
4317;SDS011;2172;53.576;9.934;2023-05-13T07:59:47;8.43;;;7.60;;
4317;SDS011;2172;53.576;9.934;2023-05-13T08:02:17;8.27;;;7.40;;
4317;SDS011;2172;53.576;9.934;2023-05-13T08:04:44;13.40;;;8.00;;
4317;SDS011;2172;53.576;9.934;2023-05-13T08:07:12;7.83;;;6.87;;
4317;SDS011;2172;53.576;9.934;2023-05-13T08:09:40;9.37;;;7.17;;
4317;SDS011;2172;53.576;9.934;2023-05-13T08:12:08;14.83;;;7.73;;
4317;SDS011;2172;53.576;9.934;2023-05-13T08:14:35;17.97;;;7.20;;
4317;SDS011;2172;53.576;9.934;2023-05-13T08:17:04;11.50;;;8.03;;
4317;SDS011;2172;53.576;9.934;2023-05-13T08:19:32;11.23;;;6.67;;
4317;SDS011;2172;53.576;9.934;2023-05-13T08:22:04;7.90;;;6.17;;
4317;SDS011;2172;53.576;9.934;2023-05-13T08:24:31;7.90;;;7.03;;
4317;SDS011;2172;53.576;9.934;2023-05-13T08:27:00;11.90;;;6.60;;
4317;SDS011;2172;53.576;9.934;2023-05-13T08:29:28;14.00;;;7.20;;
4317;SDS011;2172;53.576;9.934;2023-05-13T08:31:55;8.43;;;7.20;;
4317;SDS011;2172;53.576;9.934;2023-05-13T08:34:23;7.13;;;6.43;;
4317;SDS011;2172;53.576;9.934;2023-05-13T08:36:50;8.47;;;6.37;;
4317;SDS011;2172;53.576;9.934;2023-05-13T08:39:18;16.03;;;7.60;;
4317;SDS011;2172;53.576;9.934;2023-05-13T08:41:46;8.37;;;5.93;;
4317;SDS011;2172;53.576;9.934;2023-05-13T08:44:15;6.63;;;6.03;;
4317;SDS011;2172;53.576;9.934;2023-05-13T08:46:49;6.90;;;5.33;;
4317;SDS011;2172;53.576;9.934;2023-05-13T08:49:19;7.50;;;6.70;;
4317;SDS011;2172;53.576;9.934;2023-05-13T08:51:46;11.63;;;6.30;;
4317;SDS011;2172;53.576;9.934;2023-05-13T08:54:14;10.07;;;6.40;;
4317;SDS011;2172;53.576;9.934;2023-05-13T08:56:42;10.87;;;6.70;;
4317;SDS011;2172;53.576;9.934;2023-05-13T08:59:10;7.83;;;6.50;;
4317;SDS011;2172;53.576;9.934;2023-05-13T09:01:39;7.57;;;5.70;;
4317;SDS011;2172;53.576;9.934;2023-05-13T09:04:07;6.47;;;5.87;;
4317;SDS011;2172;53.576;9.934;2023-05-13T09:06:35;7.07;;;6.00;;
4317;SDS011;2172;53.576;9.934;2023-05-13T09:09:03;7.33;;;6.03;;
4317;SDS011;2172;53.576;9.934;2023-05-13T09:11:30;10.43;;;6.07;;
4317;SDS011;2172;53.576;9.934;2023-05-13T09:14:01;29.33;;;8.97;;
4317;SDS011;2172;53.576;9.934;2023-05-13T09:16:31;7.13;;;5.80;;
4317;SDS011;2172;53.576;9.934;2023-05-13T09:19:02;13.80;;;8.00;;
4317;SDS011;2172;53.576;9.934;2023-05-13T09:21:31;7.53;;;5.93;;
4317;SDS011;2172;53.576;9.934;2023-05-13T09:24:07;7.57;;;5.40;;
4317;SDS011;2172;53.576;9.934;2023-05-13T09:26:36;13.90;;;6.03;;
4317;SDS011;2172;53.576;9.934;2023-05-13T09:29:12;9.60;;;5.37;;
4317;SDS011;2172;53.576;9.934;2023-05-13T09:31:44;9.37;;;5.73;;
4317;SDS011;2172;53.576;9.934;2023-05-13T09:34:15;8.07;;;5.73;;
4317;SDS011;2172;53.576;9.934;2023-05-13T09:36:55;8.73;;;6.33;;
4317;SDS011;2172;53.576;9.934;2023-05-13T09:39:23;7.40;;;6.10;;
4317;SDS011;2172;53.576;9.934;2023-05-13T09:41:51;6.57;;;5.50;;
4317;SDS011;2172;53.576;9.934;2023-05-13T09:44:18;7.63;;;6.27;;
4317;SDS011;2172;53.576;9.934;2023-05-13T09:46:47;8.20;;;6.67;;
4317;SDS011;2172;53.576;9.934;2023-05-13T09:49:17;10.37;;;8.47;;
4317;SDS011;2172;53.576;9.934;2023-05-13T09:51:47;6.33;;;5.77;;
4317;SDS011;2172;53.576;9.934;2023-05-13T09:54:15;6.90;;;5.70;;
4317;SDS011;2172;53.576;9.934;2023-05-13T09:56:45;6.50;;;5.90;;
4317;SDS011;2172;53.576;9.934;2023-05-13T09:59:14;6.90;;;6.00;;
4317;SDS011;2172;53.576;9.934;2023-05-13T10:01:41;6.50;;;5.57;;
4317;SDS011;2172;53.576;9.934;2023-05-13T10:04:09;7.10;;;5.70;;
4317;SDS011;2172;53.576;9.934;2023-05-13T10:06:38;7.60;;;6.37;;
4317;SDS011;2172;53.576;9.934;2023-05-13T10:09:06;9.67;;;5.63;;
4317;SDS011;2172;53.576;9.934;2023-05-13T10:11:36;6.37;;;5.77;;
4317;SDS011;2172;53.576;9.934;2023-05-13T10:14:04;6.77;;;5.43;;
4317;SDS011;2172;53.576;9.934;2023-05-13T10:16:32;6.07;;;5.47;;
4317;SDS011;2172;53.576;9.934;2023-05-13T10:19:00;8.83;;;6.30;;
4317;SDS011;2172;53.576;9.934;2023-05-13T10:21:28;7.93;;;6.10;;
4317;SDS011;2172;53.576;9.934;2023-05-13T10:23:58;6.47;;;5.87;;
4317;SDS011;2172;53.576;9.934;2023-05-13T10:26:26;11.90;;;5.33;;
4317;SDS011;2172;53.576;9.934;2023-05-13T10:28:53;12.87;;;5.87;;
4317;SDS011;2172;53.576;9.934;2023-05-13T10:31:21;5.77;;;5.27;;
4317;SDS011;2172;53.576;9.934;2023-05-13T10:33:49;5.67;;;5.17;;
4317;SDS011;2172;53.576;9.934;2023-05-13T10:36:21;6.40;;;5.60;;
4317;SDS011;2172;53.576;9.934;2023-05-13T10:39:05;6.47;;;5.77;;
4317;SDS011;2172;53.576;9.934;2023-05-13T10:45:10;7.47;;;6.10;;
4317;SDS011;2172;53.576;9.934;2023-05-13T10:47:37;8.90;;;5.67;;
4317;SDS011;2172;53.576;9.934;2023-05-13T10:50:05;11.20;;;5.97;;
4317;SDS011;2172;53.576;9.934;2023-05-13T10:52:47;5.63;;;5.00;;
4317;SDS011;2172;53.576;9.934;2023-05-13T10:55:17;7.13;;;5.67;;
4317;SDS011;2172;53.576;9.934;2023-05-13T10:58:07;7.40;;;5.90;;
4317;SDS011;2172;53.576;9.934;2023-05-13T11:00:36;6.10;;;5.50;;
4317;SDS011;2172;53.576;9.934;2023-05-13T11:03:09;5.67;;;5.17;;
4317;SDS011;2172;53.576;9.934;2023-05-13T11:05:42;6.73;;;5.80;;
4317;SDS011;2172;53.576;9.934;2023-05-13T11:08:11;5.73;;;5.13;;
4317;SDS011;2172;53.576;9.934;2023-05-13T11:10:55;10.00;;;6.50;;
4317;SDS011;2172;53.576;9.934;2023-05-13T11:13:22;7.93;;;5.80;;
4317;SDS011;2172;53.576;9.934;2023-05-13T11:16:03;6.67;;;5.53;;
4317;SDS011;2172;53.576;9.934;2023-05-13T11:18:33;8.50;;;6.20;;
4317;SDS011;2172;53.576;9.934;2023-05-13T11:21:01;9.50;;;5.50;;
4317;SDS011;2172;53.576;9.934;2023-05-13T11:23:31;7.97;;;5.60;;
4317;SDS011;2172;53.576;9.934;2023-05-13T11:26:10;6.33;;;5.50;;
4317;SDS011;2172;53.576;9.934;2023-05-13T11:28:54;7.67;;;5.10;;
4317;SDS011;2172;53.576;9.934;2023-05-13T11:31:23;6.77;;;5.23;;
4317;SDS011;2172;53.576;9.934;2023-05-13T11:34:04;6.73;;;5.50;;
4317;SDS011;2172;53.576;9.934;2023-05-13T11:36:33;7.30;;;5.40;;
4317;SDS011;2172;53.576;9.934;2023-05-13T11:39:05;5.83;;;5.17;;
4317;SDS011;2172;53.576;9.934;2023-05-13T11:41:37;8.40;;;5.37;;
4317;SDS011;2172;53.576;9.934;2023-05-13T11:44:06;5.70;;;5.10;;
4317;SDS011;2172;53.576;9.934;2023-05-13T11:46:34;5.30;;;4.80;;
4317;SDS011;2172;53.576;9.934;2023-05-13T11:49:02;8.37;;;5.03;;
4317;SDS011;2172;53.576;9.934;2023-05-13T11:51:29;7.13;;;5.90;;
4317;SDS011;2172;53.576;9.934;2023-05-13T11:54:02;6.83;;;5.77;;
4317;SDS011;2172;53.576;9.934;2023-05-13T11:56:30;10.03;;;6.17;;
4317;SDS011;2172;53.576;9.934;2023-05-13T11:59:14;7.33;;;5.70;;
4317;SDS011;2172;53.576;9.934;2023-05-13T12:01:42;6.13;;;5.57;;
4317;SDS011;2172;53.576;9.934;2023-05-13T12:04:09;6.60;;;4.90;;
4317;SDS011;2172;53.576;9.934;2023-05-13T12:06:42;9.20;;;5.60;;
4317;SDS011;2172;53.576;9.934;2023-05-13T12:09:11;6.73;;;5.90;;
4317;SDS011;2172;53.576;9.934;2023-05-13T12:11:39;5.90;;;5.30;;
4317;SDS011;2172;53.576;9.934;2023-05-13T12:14:07;8.07;;;5.67;;
4317;SDS011;2172;53.576;9.934;2023-05-13T12:16:36;6.00;;;5.40;;
4317;SDS011;2172;53.576;9.934;2023-05-13T12:19:04;7.17;;;5.80;;
4317;SDS011;2172;53.576;9.934;2023-05-13T12:21:32;8.60;;;5.93;;
4317;SDS011;2172;53.576;9.934;2023-05-13T12:23:59;5.67;;;5.07;;
4317;SDS011;2172;53.576;9.934;2023-05-13T12:26:27;6.63;;;5.93;;
4317;SDS011;2172;53.576;9.934;2023-05-13T12:28:56;6.17;;;5.67;;
4317;SDS011;2172;53.576;9.934;2023-05-13T12:31:24;6.20;;;5.70;;
4317;SDS011;2172;53.576;9.934;2023-05-13T12:33:53;6.17;;;5.57;;
4317;SDS011;2172;53.576;9.934;2023-05-13T12:36:21;6.10;;;5.47;;
4317;SDS011;2172;53.576;9.934;2023-05-13T12:38:52;9.10;;;6.20;;
4317;SDS011;2172;53.576;9.934;2023-05-13T12:41:21;7.80;;;6.40;;
4317;SDS011;2172;53.576;9.934;2023-05-13T12:43:50;6.73;;;6.00;;
4317;SDS011;2172;53.576;9.934;2023-05-13T12:46:25;8.30;;;6.27;;
4317;SDS011;2172;53.576;9.934;2023-05-13T12:48:55;7.40;;;5.20;;
4317;SDS011;2172;53.576;9.934;2023-05-13T12:51:23;5.90;;;5.30;;
4317;SDS011;2172;53.576;9.934;2023-05-13T12:53:51;7.93;;;5.83;;
4317;SDS011;2172;53.576;9.934;2023-05-13T12:56:20;16.47;;;5.50;;
4317;SDS011;2172;53.576;9.934;2023-05-13T12:58:48;5.70;;;5.00;;
4317;SDS011;2172;53.576;9.934;2023-05-13T13:01:16;6.03;;;5.30;;
4317;SDS011;2172;53.576;9.934;2023-05-13T13:03:44;7.03;;;4.93;;
4317;SDS011;2172;53.576;9.934;2023-05-13T13:06:12;5.10;;;4.60;;
4317;SDS011;2172;53.576;9.934;2023-05-13T13:08:41;4.20;;;3.90;;
4317;SDS011;2172;53.576;9.934;2023-05-13T13:11:09;9.50;;;5.07;;
4317;SDS011;2172;53.576;9.934;2023-05-13T13:13:38;5.10;;;4.70;;
4317;SDS011;2172;53.576;9.934;2023-05-13T13:16:06;8.40;;;5.33;;
4317;SDS011;2172;53.576;9.934;2023-05-13T13:18:34;6.83;;;5.20;;
4317;SDS011;2172;53.576;9.934;2023-05-13T13:21:02;7.60;;;4.60;;
4317;SDS011;2172;53.576;9.934;2023-05-13T13:23:32;6.47;;;4.47;;
4317;SDS011;2172;53.576;9.934;2023-05-13T13:26:00;7.07;;;4.47;;
4317;SDS011;2172;53.576;9.934;2023-05-13T13:28:28;5.70;;;4.60;;
4317;SDS011;2172;53.576;9.934;2023-05-13T13:30:56;5.10;;;4.60;;
4317;SDS011;2172;53.576;9.934;2023-05-13T13:33:24;7.03;;;4.40;;
4317;SDS011;2172;53.576;9.934;2023-05-13T13:35:51;5.53;;;5.03;;
4317;SDS011;2172;53.576;9.934;2023-05-13T13:38:19;4.87;;;4.40;;
4317;SDS011;2172;53.576;9.934;2023-05-13T13:40:47;4.53;;;4.13;;
4317;SDS011;2172;53.576;9.934;2023-05-13T13:43:15;5.80;;;4.90;;
4317;SDS011;2172;53.576;9.934;2023-05-13T13:45:43;6.33;;;5.70;;
4317;SDS011;2172;53.576;9.934;2023-05-13T13:48:11;7.17;;;4.70;;
4317;SDS011;2172;53.576;9.934;2023-05-13T13:50:39;4.77;;;4.27;;
4317;SDS011;2172;53.576;9.934;2023-05-13T13:53:06;9.63;;;4.63;;
4317;SDS011;2172;53.576;9.934;2023-05-13T13:55:34;6.30;;;4.70;;
4317;SDS011;2172;53.576;9.934;2023-05-13T13:58:03;5.10;;;4.67;;
4317;SDS011;2172;53.576;9.934;2023-05-13T14:00:31;5.13;;;4.60;;
4317;SDS011;2172;53.576;9.934;2023-05-13T14:02:58;7.90;;;5.03;;
4317;SDS011;2172;53.576;9.934;2023-05-13T14:05:26;5.47;;;4.63;;
4317;SDS011;2172;53.576;9.934;2023-05-13T14:07:54;5.80;;;4.80;;
4317;SDS011;2172;53.576;9.934;2023-05-13T14:10:21;6.60;;;4.20;;
4317;SDS011;2172;53.576;9.934;2023-05-13T14:12:49;5.93;;;4.90;;
4317;SDS011;2172;53.576;9.934;2023-05-13T14:15:18;7.27;;;4.47;;
4317;SDS011;2172;53.576;9.934;2023-05-13T14:17:46;5.30;;;3.90;;
4317;SDS011;2172;53.576;9.934;2023-05-13T14:20:13;4.63;;;4.23;;
4317;SDS011;2172;53.576;9.934;2023-05-13T14:22:41;5.30;;;4.27;;
4317;SDS011;2172;53.576;9.934;2023-05-13T14:25:08;11.87;;;4.67;;
4317;SDS011;2172;53.576;9.934;2023-05-13T14:27:36;7.83;;;4.50;;
4317;SDS011;2172;53.576;9.934;2023-05-13T14:30:04;6.17;;;4.67;;
4317;SDS011;2172;53.576;9.934;2023-05-13T14:32:34;4.63;;;4.13;;
4317;SDS011;2172;53.576;9.934;2023-05-13T14:35:01;4.87;;;4.47;;
4317;SDS011;2172;53.576;9.934;2023-05-13T14:37:29;5.40;;;4.90;;
4317;SDS011;2172;53.576;9.934;2023-05-13T14:39:57;5.37;;;4.87;;
4317;SDS011;2172;53.576;9.934;2023-05-13T14:42:24;4.73;;;4.10;;
4317;SDS011;2172;53.576;9.934;2023-05-13T14:44:52;4.60;;;4.20;;
4317;SDS011;2172;53.576;9.934;2023-05-13T14:47:19;7.30;;;4.80;;
4317;SDS011;2172;53.576;9.934;2023-05-13T14:49:48;5.57;;;4.40;;
4317;SDS011;2172;53.576;9.934;2023-05-13T14:52:15;6.70;;;4.50;;
4317;SDS011;2172;53.576;9.934;2023-05-13T14:54:43;4.53;;;4.13;;
4317;SDS011;2172;53.576;9.934;2023-05-13T14:57:10;4.80;;;4.40;;
4317;SDS011;2172;53.576;9.934;2023-05-13T14:59:38;5.10;;;4.60;;
4317;SDS011;2172;53.576;9.934;2023-05-13T15:02:05;5.37;;;4.20;;
4317;SDS011;2172;53.576;9.934;2023-05-13T15:04:33;6.00;;;4.83;;
4317;SDS011;2172;53.576;9.934;2023-05-13T15:07:02;4.93;;;4.20;;
4317;SDS011;2172;53.576;9.934;2023-05-13T15:09:29;5.33;;;4.83;;
4317;SDS011;2172;53.576;9.934;2023-05-13T15:11:57;6.17;;;4.47;;
4317;SDS011;2172;53.576;9.934;2023-05-13T15:14:24;4.60;;;4.20;;